createdAt,value
2023-03-03T00:00:44.996Z,16.90
2023-03-03T00:03:19.043Z,17.55
2023-03-03T00:06:35.624Z,17.92
2023-03-03T00:09:06.979Z,16.38
2023-03-03T00:11:47.602Z,14.48
2023-03-03T00:14:44.449Z,18.50
2023-03-03T00:17:40.497Z,18.23
2023-03-03T00:20:35.231Z,18.55
2023-03-03T00:23:18.388Z,22.13
2023-03-03T00:25:51.268Z,18.10
2023-03-03T00:28:44.452Z,16.52
2023-03-03T00:31:19.387Z,20.60
2023-03-03T00:33:54.991Z,17.30
2023-03-03T00:36:37.454Z,17.85
2023-03-03T00:39:23.306Z,19.33
2023-03-03T00:41:53.167Z,20.02
2023-03-03T00:44:43.846Z,22.00
2023-03-03T00:47:26.116Z,19.42
2023-03-03T00:50:01.216Z,21.73
2023-03-03T00:52:32.016Z,17.30
2023-03-03T00:55:01.462Z,19.17
2023-03-03T00:57:30.816Z,21.02
2023-03-03T01:00:00.730Z,20.85
2023-03-03T01:02:31.270Z,25.05
2023-03-03T01:05:00.448Z,20.95
2023-03-03T01:07:31.322Z,19.23
2023-03-03T01:10:00.660Z,16.10
2023-03-03T01:12:30.032Z,18.60
2023-03-03T01:14:59.703Z,21.15
2023-03-03T01:17:29.040Z,17.48
2023-03-03T01:19:59.773Z,19.00
2023-03-03T01:22:29.488Z,15.15
2023-03-03T01:25:00.420Z,18.52
2023-03-03T01:27:29.822Z,18.52
2023-03-03T01:29:59.390Z,19.27
2023-03-03T01:32:30.073Z,19.23
2023-03-03T01:34:59.408Z,17.08
2023-03-03T01:37:28.371Z,17.00
2023-03-03T01:39:57.760Z,18.40
2023-03-03T01:42:29.465Z,17.20
2023-03-03T01:45:16.345Z,13.98
2023-03-03T01:47:50.182Z,19.88
2023-03-03T01:52:51.297Z,17.58
2023-03-03T01:55:24.390Z,15.43
2023-03-03T01:58:01.683Z,14.98
2023-03-03T02:00:33.070Z,15.43
2023-03-03T02:03:03.116Z,16.05
2023-03-03T02:05:33.500Z,15.85
2023-03-03T02:08:03.791Z,18.27
2023-03-03T02:10:33.450Z,14.52
2023-03-03T02:13:04.173Z,19.50
2023-03-03T02:15:36.800Z,16.25
2023-03-03T02:18:09.021Z,14.65
2023-03-03T02:20:48.468Z,14.95
2023-03-03T02:23:23.862Z,14.95
2023-03-03T02:26:08.214Z,17.27
2023-03-03T02:28:39.359Z,14.70
2023-03-03T02:31:18.840Z,15.85
2023-03-03T02:33:50.331Z,16.48
2023-03-03T02:36:21.456Z,14.77
2023-03-03T02:38:57.262Z,15.63
2023-03-03T02:41:37.797Z,16.67
2023-03-03T02:44:10.976Z,13.32
2023-03-03T02:46:42.206Z,16.00
2023-03-03T02:49:14.588Z,20.65
2023-03-03T02:51:44.651Z,17.13
2023-03-03T02:54:15.867Z,16.02
2023-03-03T02:56:46.773Z,16.08
2023-03-03T02:59:16.722Z,16.13
2023-03-03T03:01:50.877Z,14.68
2023-03-03T03:04:23.956Z,16.15
2023-03-03T03:06:54.834Z,14.25
2023-03-03T03:09:26.507Z,15.65
2023-03-03T03:11:59.703Z,17.27
2023-03-03T03:14:28.857Z,15.73
2023-03-03T03:16:59.003Z,13.63
2023-03-03T03:19:30.071Z,16.45
2023-03-03T03:22:02.966Z,16.52
2023-03-03T03:24:34.281Z,18.10
2023-03-03T03:27:08.871Z,15.02
2023-03-03T03:29:38.564Z,16.42
2023-03-03T03:32:08.623Z,13.55
2023-03-03T03:34:38.496Z,16.98
2023-03-03T03:37:10.035Z,18.58
2023-03-03T03:39:40.781Z,16.70
2023-03-03T03:42:11.630Z,13.90
2023-03-03T03:44:41.193Z,19.48
2023-03-03T03:47:11.047Z,16.38
2023-03-03T03:49:41.006Z,14.57
2023-03-03T03:52:10.563Z,18.05
2023-03-03T03:54:40.193Z,16.83
2023-03-03T03:57:09.405Z,21.48
2023-03-03T03:59:40.236Z,16.25
2023-03-03T04:02:09.566Z,17.52
2023-03-03T04:04:38.887Z,19.15
2023-03-03T04:07:10.770Z,14.27
2023-03-03T04:09:41.750Z,18.17
2023-03-03T04:12:12.608Z,17.83
2023-03-03T04:14:46.827Z,15.32
2023-03-03T04:17:18.529Z,19.63
2023-03-03T04:19:48.142Z,14.23
2023-03-03T04:22:17.767Z,15.60
2023-03-03T04:24:48.756Z,17.77
2023-03-03T04:27:19.628Z,14.15
2023-03-03T04:29:50.677Z,14.88
2023-03-03T04:32:20.265Z,16.17
2023-03-03T04:34:58.712Z,15.40
2023-03-03T04:37:37.649Z,16.95
2023-03-03T04:40:10.103Z,15.50
2023-03-03T04:42:40.422Z,18.02
2023-03-03T04:45:13.545Z,17.17
2023-03-03T04:47:43.944Z,16.77
2023-03-03T04:50:13.595Z,17.25
2023-03-03T04:52:43.513Z,17.33
2023-03-03T04:55:14.378Z,17.70
2023-03-03T04:57:43.923Z,18.23
2023-03-03T05:00:17.678Z,19.73
2023-03-03T05:02:49.793Z,19.67
2023-03-03T05:05:19.131Z,18.52
2023-03-03T05:07:48.510Z,20.73
2023-03-03T05:10:17.863Z,22.40
2023-03-03T05:12:47.218Z,21.98
2023-03-03T05:15:18.154Z,25.58
2023-03-03T05:17:48.341Z,23.02
2023-03-03T05:20:18.528Z,22.77
2023-03-03T05:22:47.943Z,21.52
2023-03-03T05:25:17.387Z,24.73
2023-03-03T05:27:46.684Z,24.00
2023-03-03T05:30:17.708Z,23.73
2023-03-03T05:32:47.218Z,21.92
2023-03-03T05:35:16.507Z,20.15
2023-03-03T05:37:47.962Z,21.05
2023-03-03T05:40:17.707Z,20.20
2023-03-03T05:42:46.984Z,24.95
2023-03-03T05:45:20.589Z,23.13
2023-03-03T05:47:50.021Z,24.48
2023-03-03T05:50:19.909Z,23.02
2023-03-03T05:52:50.026Z,23.52
2023-03-03T05:55:19.749Z,23.42
2023-03-03T05:57:49.907Z,20.75
2023-03-03T06:00:21.826Z,21.40
2023-03-03T06:02:51.465Z,18.98
2023-03-03T06:05:20.780Z,20.38
2023-03-03T06:07:49.912Z,27.85
2023-03-03T06:10:19.427Z,24.90
2023-03-03T06:12:53.130Z,22.13
2023-03-03T06:15:24.167Z,24.85
2023-03-03T06:17:53.852Z,23.38
2023-03-03T06:20:23.088Z,24.27
2023-03-03T06:22:52.718Z,23.10
2023-03-03T06:25:22.421Z,20.80
2023-03-03T06:27:51.618Z,20.70
2023-03-03T06:30:21.205Z,22.63
2023-03-03T06:32:51.833Z,23.38
2023-03-03T06:35:21.683Z,27.35
2023-03-03T06:37:51.718Z,22.35
2023-03-03T06:40:21.424Z,23.23
2023-03-03T06:42:50.540Z,21.90
2023-03-03T06:45:19.874Z,22.02
2023-03-03T06:47:51.416Z,24.55
2023-03-03T06:50:22.392Z,22.23
2023-03-03T06:53:06.532Z,20.65
2023-03-03T06:55:35.621Z,23.00
2023-03-03T06:58:12.243Z,25.25
2023-03-03T07:00:44.243Z,23.65
2023-03-03T07:03:17.398Z,23.60
2023-03-03T07:05:47.138Z,22.05
2023-03-03T07:08:19.028Z,21.50
2023-03-03T07:10:49.815Z,19.13
2023-03-03T07:13:22.162Z,19.25
2023-03-03T07:15:53.519Z,19.83
2023-03-03T07:18:48.485Z,18.52
2023-03-03T07:21:20.553Z,18.83
2023-03-03T07:23:51.531Z,21.30
2023-03-03T07:26:23.314Z,20.98
2023-03-03T07:28:55.973Z,22.95
2023-03-03T07:31:32.345Z,20.65
2023-03-03T07:34:03.592Z,21.45
2023-03-03T07:36:38.028Z,20.63
2023-03-03T07:39:26.845Z,22.15
2023-03-03T07:42:02.077Z,18.67
2023-03-03T07:44:37.802Z,16.80
2023-03-03T07:47:19.664Z,22.15
2023-03-03T07:49:51.735Z,19.35
2023-03-03T07:52:32.300Z,24.13
2023-03-03T07:55:21.353Z,21.63
2023-03-03T07:57:59.037Z,18.63
2023-03-03T08:01:13.073Z,21.75
2023-03-03T08:03:45.959Z,20.55
2023-03-03T08:06:41.472Z,16.57
2023-03-03T08:09:39.348Z,20.27
2023-03-03T08:12:26.060Z,17.30
2023-03-03T08:14:56.868Z,19.42
2023-03-03T08:17:37.287Z,19.52
2023-03-03T08:20:43.515Z,19.85
2023-03-03T08:23:15.550Z,19.40
2023-03-03T08:25:45.870Z,16.23
2023-03-03T08:28:15.317Z,16.08
2023-03-03T08:30:45.842Z,16.42
2023-03-03T08:33:15.608Z,16.52
2023-03-03T08:35:45.723Z,14.93
2023-03-03T08:38:18.741Z,11.85
2023-03-03T08:40:48.765Z,10.70
2023-03-03T08:43:21.640Z,16.13
2023-03-03T08:45:52.145Z,14.00
2023-03-03T08:48:23.199Z,13.23
2023-03-03T08:50:52.996Z,14.38
2023-03-03T08:53:24.649Z,16.50
2023-03-03T08:55:54.506Z,14.88
2023-03-03T08:58:34.686Z,17.55
2023-03-03T09:01:05.981Z,15.57
2023-03-03T09:03:35.522Z,13.40
2023-03-03T09:06:05.208Z,17.67
2023-03-03T09:08:36.293Z,15.55
2023-03-03T09:11:10.528Z,15.68
2023-03-03T09:13:39.745Z,14.30
2023-03-03T09:16:15.361Z,14.68
2023-03-03T09:18:46.251Z,16.50
2023-03-03T09:21:23.099Z,13.77
2023-03-03T09:23:58.272Z,16.73
2023-03-03T09:26:32.980Z,14.20
2023-03-03T09:29:23.669Z,12.65
2023-03-03T09:31:54.611Z,11.52
2023-03-03T09:34:28.669Z,13.05
2023-03-03T09:37:00.215Z,11.32
2023-03-03T09:39:32.560Z,11.82
2023-03-03T09:42:21.846Z,12.75
2023-03-03T09:45:27.386Z,8.95
2023-03-03T09:48:27.516Z,10.70
2023-03-03T09:51:08.649Z,12.35
2023-03-03T09:53:57.888Z,11.27
2023-03-03T09:56:34.208Z,13.60
2023-03-03T09:59:17.863Z,11.05
2023-03-03T10:02:04.907Z,14.10
2023-03-03T10:04:57.774Z,8.98
2023-03-03T10:07:40.430Z,10.93
2023-03-03T10:10:37.310Z,11.25
2023-03-03T10:13:21.166Z,12.23
2023-03-03T10:16:02.157Z,10.75
2023-03-03T10:18:34.348Z,10.38
2023-03-03T10:21:11.704Z,12.55
2023-03-03T10:23:56.244Z,11.20
2023-03-03T10:26:46.502Z,11.60
2023-03-03T10:29:31.028Z,12.90
2023-03-03T10:32:32.301Z,12.00
2023-03-03T10:35:26.062Z,11.30
2023-03-03T10:38:14.958Z,9.88
2023-03-03T10:40:52.421Z,9.68
2023-03-03T10:43:41.316Z,13.95
2023-03-03T10:46:25.765Z,11.35
2023-03-03T10:49:30.366Z,9.13
2023-03-03T10:55:05.660Z,8.90
2023-03-03T10:57:39.655Z,12.60
2023-03-03T11:00:21.962Z,12.60
2023-03-03T11:03:24.954Z,7.15
2023-03-03T11:06:00.213Z,9.02
2023-03-03T11:08:35.641Z,7.88
2023-03-03T11:11:18.562Z,10.43
2023-03-03T11:13:56.079Z,9.20
2023-03-03T11:16:38.428Z,11.50
2023-03-03T11:19:21.006Z,9.73
2023-03-03T11:21:59.877Z,9.50
2023-03-03T11:24:42.511Z,7.90
2023-03-03T11:27:27.947Z,8.23
2023-03-03T11:30:10.311Z,7.88
2023-03-03T11:32:50.393Z,6.45
2023-03-03T11:35:25.938Z,7.93
2023-03-03T11:38:08.300Z,6.20
2023-03-03T11:40:46.616Z,6.30
2023-03-03T11:43:35.773Z,6.22
2023-03-03T11:46:10.962Z,7.15
2023-03-03T11:48:47.448Z,9.38
2023-03-03T11:51:24.669Z,8.68
2023-03-03T11:54:02.694Z,6.20
2023-03-03T11:56:37.358Z,6.18
2023-03-03T11:59:35.615Z,7.55
2023-03-03T12:02:15.734Z,9.73
2023-03-03T12:04:51.468Z,7.90
2023-03-03T12:07:30.826Z,7.93
2023-03-03T12:10:15.839Z,7.45
2023-03-03T12:12:46.822Z,6.78
2023-03-03T12:15:27.901Z,6.47
2023-03-03T12:18:25.372Z,8.73
2023-03-03T12:21:15.681Z,7.15
2023-03-03T12:24:04.516Z,9.32
2023-03-03T12:26:45.814Z,9.30
2023-03-03T12:29:27.078Z,6.82
2023-03-03T12:32:14.239Z,8.55
2023-03-03T12:34:51.230Z,10.60
2023-03-03T12:37:42.045Z,8.02
2023-03-03T12:40:15.721Z,9.77
2023-03-03T12:45:37.877Z,7.82
2023-03-03T12:48:16.986Z,10.35
2023-03-03T12:50:59.212Z,7.75
2023-03-03T12:53:47.340Z,6.40
2023-03-03T12:56:25.705Z,7.57
2023-03-03T12:59:04.853Z,8.48
2023-03-03T13:01:47.083Z,8.90
2023-03-03T13:04:31.104Z,9.23
2023-03-03T13:09:43.822Z,8.23
2023-03-03T13:12:30.566Z,8.82
2023-03-03T13:15:13.833Z,5.55
2023-03-03T13:17:54.033Z,7.65
2023-03-03T13:20:32.040Z,7.20
2023-03-03T13:23:08.351Z,6.32
2023-03-03T13:25:52.718Z,6.68
2023-03-03T13:28:31.865Z,6.72
2023-03-03T13:31:10.022Z,9.38
2023-03-03T13:33:49.018Z,8.73
2023-03-03T13:36:19.933Z,6.22
2023-03-03T13:38:54.513Z,8.35
2023-03-03T13:41:28.715Z,10.45
2023-03-03T13:44:03.202Z,11.10
2023-03-03T13:46:42.220Z,7.05
2023-03-03T13:49:30.114Z,10.20
2023-03-03T13:52:03.617Z,7.95
2023-03-03T13:54:57.759Z,7.55
2023-03-03T14:00:22.760Z,11.15
2023-03-03T14:03:12.389Z,11.35
2023-03-03T14:05:45.542Z,10.40
2023-03-03T14:08:27.387Z,12.35
2023-03-03T14:11:08.658Z,11.27
2023-03-03T14:13:51.631Z,11.90
2023-03-03T14:16:33.419Z,12.73
2023-03-03T14:19:10.716Z,14.85
2023-03-03T14:21:46.700Z,16.17
2023-03-03T14:24:18.356Z,17.05
2023-03-03T14:26:49.721Z,17.50
2023-03-03T14:29:30.383Z,18.80
2023-03-03T14:32:01.546Z,16.75
2023-03-03T14:34:38.394Z,21.00
2023-03-03T14:37:24.460Z,17.02
2023-03-03T14:40:08.224Z,19.50
2023-03-03T14:42:48.544Z,17.40
2023-03-03T14:45:30.065Z,22.17
2023-03-03T14:48:07.121Z,19.42
2023-03-03T14:50:40.048Z,21.25
2023-03-03T14:53:17.302Z,27.73
2023-03-03T14:55:49.355Z,17.35
2023-03-03T14:58:31.453Z,19.70
2023-03-03T15:01:22.234Z,15.98
2023-03-03T15:04:00.780Z,17.25
2023-03-03T15:06:44.365Z,19.83
2023-03-03T15:09:33.880Z,21.38
2023-03-03T15:12:05.987Z,16.55
2023-03-03T15:14:39.671Z,19.00
2023-03-03T15:17:25.172Z,22.33
2023-03-03T15:20:10.684Z,18.40
2023-03-03T15:22:53.399Z,18.38
2023-03-03T15:25:42.556Z,18.90
2023-03-03T15:28:29.096Z,19.40
2023-03-03T15:31:04.942Z,16.13
2023-03-03T15:33:40.109Z,17.13
2023-03-03T15:36:15.197Z,17.80
2023-03-03T15:38:59.426Z,18.38
2023-03-03T15:41:41.010Z,20.98
2023-03-03T15:44:24.025Z,16.45
2023-03-03T15:47:13.185Z,15.35
2023-03-03T15:50:03.267Z,15.95
2023-03-03T15:52:46.790Z,18.63
2023-03-03T15:55:37.873Z,15.65
2023-03-03T15:58:29.869Z,13.32
2023-03-03T16:01:10.794Z,14.55
2023-03-03T16:03:46.538Z,15.20
2023-03-03T16:06:19.523Z,12.93
2023-03-03T16:08:57.823Z,13.25
2023-03-03T16:11:36.848Z,12.32
2023-03-03T16:14:21.603Z,12.98
2023-03-03T16:16:56.907Z,13.55
2023-03-03T16:19:41.306Z,13.57
2023-03-03T16:22:47.816Z,13.32
2023-03-03T16:25:30.437Z,14.85
2023-03-03T16:28:07.189Z,12.80
2023-03-03T16:30:40.265Z,17.35
2023-03-03T16:33:23.571Z,14.88
2023-03-03T16:36:04.276Z,12.35
2023-03-03T16:38:39.197Z,15.23
2023-03-03T16:41:14.565Z,14.85
2023-03-03T16:43:56.496Z,15.50
2023-03-03T16:46:34.925Z,13.15
2023-03-03T16:49:14.710Z,14.00
2023-03-03T16:51:50.056Z,12.23
2023-03-03T16:54:31.678Z,14.25
2023-03-03T16:57:10.911Z,14.05
2023-03-03T17:00:03.537Z,13.68
2023-03-03T17:02:54.250Z,13.52
2023-03-03T17:05:37.333Z,13.05
2023-03-03T17:08:21.988Z,10.90
2023-03-03T17:10:56.655Z,10.90
2023-03-03T17:13:47.727Z,16.60
2023-03-03T17:16:23.796Z,15.25
2023-03-03T17:19:02.796Z,13.57
2023-03-03T17:21:41.137Z,12.77
2023-03-03T17:24:21.588Z,14.18
2023-03-03T17:27:03.897Z,13.98
2023-03-03T17:29:48.174Z,14.32
2023-03-03T17:32:36.818Z,15.50
2023-03-03T17:35:22.841Z,12.63
2023-03-03T17:38:00.698Z,14.05
2023-03-03T17:40:49.828Z,22.85
2023-03-03T17:43:24.710Z,12.98
2023-03-03T17:45:57.587Z,11.13
2023-03-03T17:48:50.180Z,13.00
2023-03-03T17:51:57.131Z,11.77
2023-03-03T17:54:41.665Z,12.20
2023-03-03T17:57:25.907Z,14.40
2023-03-03T18:03:12.130Z,15.68
2023-03-03T18:06:06.434Z,14.90
2023-03-03T18:09:14.292Z,17.80
2023-03-03T18:12:05.267Z,18.42
2023-03-03T18:14:53.457Z,17.55
2023-03-03T18:17:35.775Z,17.75
2023-03-03T18:20:24.127Z,21.10
2023-03-03T18:22:55.516Z,19.27
2023-03-03T18:25:26.308Z,22.65
2023-03-03T18:28:22.128Z,22.25
2023-03-03T18:31:00.579Z,18.88
2023-03-03T18:33:41.420Z,24.13
2023-03-03T18:36:37.791Z,20.35
2023-03-03T18:39:15.836Z,23.13
2023-03-03T18:42:11.963Z,25.52
2023-03-03T18:44:41.397Z,25.95
2023-03-03T18:47:11.908Z,25.63
2023-03-03T18:49:59.357Z,25.92
2023-03-03T18:52:30.871Z,24.15
2023-03-03T18:55:24.423Z,23.10
2023-03-03T18:58:31.235Z,26.35
2023-03-03T19:01:04.455Z,27.65
2023-03-03T19:03:37.255Z,32.67
2023-03-03T19:06:10.363Z,30.23
2023-03-03T19:08:53.915Z,30.05
2023-03-03T19:11:38.734Z,31.35
2023-03-03T19:14:21.129Z,32.67
2023-03-03T19:16:52.298Z,31.58
2023-03-03T19:19:24.439Z,27.75
2023-03-03T19:22:22.808Z,35.30
2023-03-03T19:25:18.779Z,32.05
2023-03-03T19:28:05.653Z,34.25
2023-03-03T19:30:54.419Z,38.30
2023-03-03T19:33:52.521Z,33.17
2023-03-03T19:36:37.582Z,35.95
2023-03-03T19:42:05.583Z,37.40
2023-03-03T19:44:56.891Z,38.63
2023-03-03T19:47:37.337Z,31.20
2023-03-03T19:50:20.263Z,36.50
2023-03-03T19:52:56.368Z,37.67
2023-03-03T19:55:35.889Z,35.47
2023-03-03T19:58:14.364Z,35.75
2023-03-03T20:00:49.041Z,35.10
2023-03-03T20:03:41.732Z,32.85
2023-03-03T20:06:31.193Z,37.90
2023-03-03T20:09:05.070Z,34.88
2023-03-03T20:11:56.934Z,32.53
2023-03-03T20:14:46.229Z,30.50
2023-03-03T20:17:47.479Z,36.15
2023-03-03T20:20:46.945Z,32.90
2023-03-03T20:23:23.254Z,35.20
2023-03-03T20:26:00.122Z,34.92
2023-03-03T20:29:08.003Z,33.95
2023-03-03T20:31:45.820Z,32.30
2023-03-03T20:34:27.211Z,33.35
2023-03-03T20:37:06.264Z,30.63
2023-03-03T20:39:57.517Z,31.23
2023-03-03T20:42:38.634Z,33.92
2023-03-03T20:45:23.608Z,26.45
2023-03-03T20:48:08.219Z,33.75
2023-03-03T20:50:51.288Z,27.35
2023-03-03T20:53:27.876Z,25.85
2023-03-03T20:56:07.299Z,32.15
2023-03-03T20:58:47.579Z,29.90
2023-03-03T21:01:26.368Z,28.02
2023-03-03T21:03:56.747Z,32.97
2023-03-03T21:06:40.849Z,27.80
2023-03-03T21:11:52.982Z,25.23
2023-03-03T21:14:24.751Z,29.23
2023-03-03T21:16:56.841Z,29.48
2023-03-03T21:19:29.193Z,30.40
2023-03-03T21:22:02.572Z,28.50
2023-03-03T21:24:49.274Z,31.48
2023-03-03T21:27:29.894Z,31.27
2023-03-03T21:30:10.982Z,26.85
2023-03-03T21:32:42.971Z,28.77
2023-03-03T21:35:14.819Z,27.95
2023-03-03T21:37:48.622Z,31.83
2023-03-03T21:42:51.234Z,32.60
2023-03-03T21:45:21.460Z,34.05
2023-03-03T21:47:51.521Z,34.03
2023-03-03T21:50:21.539Z,27.17
2023-03-03T21:52:52.426Z,28.77
2023-03-03T21:55:21.891Z,29.60
2023-03-03T21:57:51.381Z,29.50
2023-03-03T22:00:21.595Z,29.63
2023-03-03T22:02:51.397Z,32.55
2023-03-03T22:05:20.889Z,27.02
2023-03-03T22:07:51.616Z,31.73
2023-03-03T22:10:20.908Z,31.08
2023-03-03T22:12:50.427Z,27.10
2023-03-03T22:15:19.666Z,30.95
2023-03-03T22:17:48.909Z,29.77
2023-03-03T22:20:18.606Z,27.40
2023-03-03T22:22:47.719Z,26.80
2023-03-03T22:25:18.886Z,32.85
2023-03-03T22:27:48.232Z,27.23
2023-03-03T22:30:18.411Z,30.88
2023-03-03T22:32:52.310Z,30.90
2023-03-03T22:35:21.744Z,25.42
2023-03-03T22:37:51.035Z,27.05
2023-03-03T22:40:22.109Z,19.92
2023-03-03T22:42:51.672Z,29.95
2023-03-03T22:45:21.164Z,24.00
2023-03-03T22:47:50.505Z,24.27
2023-03-03T22:50:20.345Z,25.80
2023-03-03T22:52:49.934Z,22.17
2023-03-03T22:55:19.397Z,23.80
2023-03-03T22:57:50.559Z,27.13
2023-03-03T23:00:21.585Z,27.42
2023-03-03T23:02:50.986Z,25.25
2023-03-03T23:05:20.671Z,26.58
2023-03-03T23:07:50.126Z,26.70
2023-03-03T23:10:20.208Z,33.17
2023-03-03T23:12:50.824Z,29.17
2023-03-03T23:15:20.478Z,30.58
2023-03-03T23:17:50.742Z,30.35
2023-03-03T23:20:22.547Z,31.67
2023-03-03T23:22:52.419Z,30.92
2023-03-03T23:25:23.085Z,31.08
2023-03-03T23:27:54.152Z,30.33
2023-03-03T23:30:24.451Z,28.88
2023-03-03T23:32:55.299Z,27.90
2023-03-03T23:35:24.789Z,29.80
2023-03-03T23:37:56.790Z,27.45
2023-03-03T23:40:26.376Z,28.73
2023-03-03T23:42:57.305Z,31.27
2023-03-03T23:45:26.323Z,31.95
2023-03-03T23:47:55.656Z,24.40
2023-03-03T23:50:25.062Z,28.38
2023-03-03T23:52:54.703Z,35.42
2023-03-03T23:55:24.462Z,30.38
2023-03-03T23:57:56.465Z,30.02
